AEE377 LGMK-LGAV
Flight info
| Callsign | AEE377 |
|---|---|
| Flight time | 0h 25m |
| Altitude | 14000 |
| Route | VARIX |
| Aircraft | A320/M-SDE3FGHIRWY/LB1 |
Departure
| Time | 2026-05-06 12:50 |
|---|---|
| Airport | Mykonos Island National Airport (LGMK) |
Arrival
| Time | 2026-05-06 13:16 |
|---|---|
| Airport | Athens Eleftherios Venizelos International Airport (LGAV) |
| Time | Latitude | Longitude | Altitude | Speed | Heading |
|---|---|---|---|---|---|
| 2026-05-06 12:28 | 37.43463 | 25.34657 | 407 ft | 0 kts | 251° |
| 2026-05-06 12:37 | 37.43468 | 25.34680 | 434 ft | 4 kts | 264° |
| 2026-05-06 12:37 | 37.43466 | 25.34712 | 402 ft | 4 kts | 299° |
| 2026-05-06 12:38 | 37.43448 | 25.34735 | 404 ft | 4 kts | 335° |
| 2026-05-06 12:38 | 37.43434 | 25.34742 | 408 ft | 0 kts | 341° |
| 2026-05-06 12:42 | 37.43445 | 25.34737 | 405 ft | 6 kts | 341° |
| 2026-05-06 12:42 | 37.43493 | 25.34716 | 408 ft | 9 kts | 341° |
| 2026-05-06 12:42 | 37.43558 | 25.34688 | 408 ft | 11 kts | 341° |
| 2026-05-06 12:42 | 37.43606 | 25.34677 | 408 ft | 0 kts | 7° |
| 2026-05-06 12:44 | 37.43607 | 25.34677 | 408 ft | 1 kts | 7° |
| 2026-05-06 12:44 | 37.43650 | 25.34699 | 409 ft | 12 kts | 30° |
| 2026-05-06 12:44 | 37.43742 | 25.34720 | 411 ft | 16 kts | 345° |
| 2026-05-06 12:45 | 37.43866 | 25.34667 | 412 ft | 21 kts | 340° |
| 2026-05-06 12:45 | 37.44006 | 25.34605 | 410 ft | 20 kts | 341° |
| 2026-05-06 12:45 | 37.44195 | 25.34518 | 407 ft | 13 kts | 339° |
| 2026-05-06 12:46 | 37.44242 | 25.34489 | 406 ft | 9 kts | 320° |
| 2026-05-06 12:46 | 37.44290 | 25.34455 | 404 ft | 8 kts | 356° |
| 2026-05-06 12:46 | 37.44292 | 25.34485 | 405 ft | 3 kts | 144° |
| 2026-05-06 12:46 | 37.44264 | 25.34492 | 404 ft | 5 kts | 173° |
| 2026-05-06 12:47 | 37.44253 | 25.34496 | 404 ft | 0 kts | 165° |
| 2026-05-06 12:49 | 37.44041 | 25.34588 | 409 ft | 70 kts | 160° |
| 2026-05-06 12:50 | 37.43379 | 25.34878 | 412 ft | 127 kts | 161° |
| 2026-05-06 12:50 | 37.42476 | 25.35310 | 823 ft | 137 kts | 159° |
| 2026-05-06 12:50 | 37.41633 | 25.35769 | 1558 ft | 131 kts | 162° |
| 2026-05-06 12:50 | 37.40766 | 25.36143 | 2239 ft | 135 kts | 162° |
| 2026-05-06 12:51 | 37.39819 | 25.36537 | 2628 ft | 154 kts | 163° |
| 2026-05-06 12:51 | 37.38732 | 25.36993 | 2929 ft | 177 kts | 163° |
| 2026-05-06 12:51 | 37.37491 | 25.37521 | 3298 ft | 199 kts | 162° |
| 2026-05-06 12:51 | 37.36125 | 25.38108 | 3832 ft | 213 kts | 163° |
| 2026-05-06 12:52 | 37.34842 | 25.38304 | 4467 ft | 216 kts | 193° |
| 2026-05-06 12:52 | 37.33508 | 25.37436 | 5106 ft | 227 kts | 231° |
| 2026-05-06 12:52 | 37.32678 | 25.35711 | 5807 ft | 235 kts | 245° |
| 2026-05-06 12:52 | 37.31915 | 25.33865 | 6698 ft | 240 kts | 246° |
| 2026-05-06 12:53 | 37.31134 | 25.31989 | 7607 ft | 244 kts | 245° |
| 2026-05-06 12:53 | 37.30334 | 25.30088 | 8517 ft | 248 kts | 245° |
| 2026-05-06 12:53 | 37.29518 | 25.28159 | 9425 ft | 252 kts | 245° |
| 2026-05-06 12:53 | 37.28687 | 25.26196 | 10281 ft | 257 kts | 245° |
| 2026-05-06 12:54 | 37.27869 | 25.24188 | 11118 ft | 259 kts | 252° |
| 2026-05-06 12:54 | 37.27488 | 25.21999 | 11927 ft | 257 kts | 272° |
| 2026-05-06 12:54 | 37.27716 | 25.19768 | 12539 ft | 266 kts | 290° |
| 2026-05-06 12:54 | 37.28606 | 25.17652 | 12942 ft | 283 kts | 307° |
| 2026-05-06 12:55 | 37.29741 | 25.15633 | 13642 ft | 290 kts | 306° |
| 2026-05-06 12:55 | 37.30905 | 25.13533 | 13998 ft | 294 kts | 306° |
| 2026-05-06 12:55 | 37.32073 | 25.11405 | 14083 ft | 304 kts | 306° |
| 2026-05-06 12:55 | 37.33324 | 25.09112 | 14109 ft | 331 kts | 306° |
| 2026-05-06 12:56 | 37.34535 | 25.06601 | 14110 ft | 344 kts | 294° |
| 2026-05-06 12:56 | 37.35073 | 25.03644 | 14111 ft | 353 kts | 274° |
| 2026-05-06 12:56 | 37.35104 | 25.00550 | 14107 ft | 354 kts | 277° |
| 2026-05-06 12:56 | 37.35721 | 24.97578 | 14113 ft | 352 kts | 292° |
| 2026-05-06 12:57 | 37.36591 | 24.94705 | 14110 ft | 352 kts | 292° |
| 2026-05-06 12:57 | 37.37462 | 24.91829 | 14111 ft | 352 kts | 292° |
| 2026-05-06 12:57 | 37.38329 | 24.88953 | 14112 ft | 352 kts | 292° |
| 2026-05-06 12:57 | 37.39192 | 24.86074 | 14109 ft | 352 kts | 292° |
| 2026-05-06 12:58 | 37.40051 | 24.83191 | 14113 ft | 352 kts | 292° |
| 2026-05-06 12:58 | 37.40908 | 24.80309 | 14111 ft | 352 kts | 292° |
| 2026-05-06 12:58 | 37.41765 | 24.77424 | 14110 ft | 352 kts | 292° |
| 2026-05-06 12:58 | 37.42620 | 24.74539 | 14110 ft | 352 kts | 292° |
| 2026-05-06 12:59 | 37.43473 | 24.71647 | 14104 ft | 352 kts | 292° |
| 2026-05-06 12:59 | 37.44323 | 24.68759 | 14105 ft | 352 kts | 292° |
| 2026-05-06 12:59 | 37.45174 | 24.65867 | 14104 ft | 352 kts | 292° |
| 2026-05-06 12:59 | 37.46025 | 24.62975 | 14100 ft | 352 kts | 292° |
| 2026-05-06 13:00 | 37.46877 | 24.60084 | 14097 ft | 352 kts | 292° |
| 2026-05-06 13:00 | 37.47729 | 24.57192 | 14097 ft | 352 kts | 292° |
| 2026-05-06 13:00 | 37.48581 | 24.54298 | 14092 ft | 353 kts | 292° |
| 2026-05-06 13:00 | 37.49432 | 24.51403 | 14092 ft | 353 kts | 292° |
| 2026-05-06 13:01 | 37.50283 | 24.48507 | 14094 ft | 353 kts | 292° |
| 2026-05-06 13:01 | 37.51135 | 24.45610 | 14096 ft | 353 kts | 292° |
| 2026-05-06 13:01 | 37.51984 | 24.42711 | 14097 ft | 353 kts | 291° |
| 2026-05-06 13:01 | 37.52833 | 24.39810 | 14098 ft | 353 kts | 291° |
| 2026-05-06 13:02 | 37.53679 | 24.36908 | 14087 ft | 353 kts | 291° |
| 2026-05-06 13:02 | 37.54630 | 24.34064 | 14088 ft | 352 kts | 300° |
| 2026-05-06 13:02 | 37.56054 | 24.31573 | 14092 ft | 351 kts | 314° |
| 2026-05-06 13:02 | 37.57920 | 24.29604 | 14094 ft | 351 kts | 327° |
| 2026-05-06 13:03 | 37.60079 | 24.28278 | 14096 ft | 351 kts | 340° |
| 2026-05-06 13:03 | 37.62402 | 24.27413 | 14008 ft | 342 kts | 343° |
| 2026-05-06 13:03 | 37.64664 | 24.26589 | 13509 ft | 336 kts | 343° |
| 2026-05-06 13:03 | 37.66903 | 24.25769 | 12945 ft | 334 kts | 343° |
| 2026-05-06 13:04 | 37.69125 | 24.24949 | 12402 ft | 332 kts | 343° |
| 2026-05-06 13:04 | 37.71315 | 24.24151 | 12132 ft | 321 kts | 344° |
| 2026-05-06 13:04 | 37.73461 | 24.23575 | 11936 ft | 311 kts | 347° |
| 2026-05-06 13:04 | 37.75536 | 24.22891 | 11584 ft | 307 kts | 343° |
| 2026-05-06 13:05 | 37.77565 | 24.22090 | 11185 ft | 305 kts | 341° |
| 2026-05-06 13:05 | 37.79565 | 24.21261 | 10835 ft | 301 kts | 342° |
| 2026-05-06 13:05 | 37.81633 | 24.20941 | 10416 ft | 302 kts | 5° |
| 2026-05-06 13:05 | 37.83659 | 24.21641 | 10033 ft | 303 kts | 22° |
| 2026-05-06 13:06 | 37.85541 | 24.22700 | 9823 ft | 288 kts | 22° |
| 2026-05-06 13:06 | 37.87347 | 24.23726 | 9262 ft | 282 kts | 22° |
| 2026-05-06 13:06 | 37.89126 | 24.24740 | 8630 ft | 279 kts | 22° |
| 2026-05-06 13:06 | 37.90934 | 24.25586 | 8004 ft | 275 kts | 11° |
| 2026-05-06 13:07 | 37.92820 | 24.25854 | 7393 ft | 272 kts | 357° |
| 2026-05-06 13:07 | 37.94692 | 24.25671 | 6893 ft | 266 kts | 354° |
| 2026-05-06 13:07 | 37.96466 | 24.25475 | 6767 ft | 247 kts | 353° |
| 2026-05-06 13:07 | 37.98143 | 24.25292 | 6421 ft | 239 kts | 354° |
| 2026-05-06 13:08 | 37.99773 | 24.24997 | 5959 ft | 235 kts | 343° |
| 2026-05-06 13:08 | 38.01288 | 24.24256 | 5517 ft | 233 kts | 335° |
| 2026-05-06 13:08 | 38.02770 | 24.23433 | 5005 ft | 232 kts | 335° |
| 2026-05-06 13:08 | 38.04247 | 24.22619 | 4517 ft | 230 kts | 335° |
| 2026-05-06 13:09 | 38.05218 | 24.22083 | 4167 ft | 229 kts | 334° |
| 2026-05-06 13:09 | 38.06571 | 24.21039 | 3647 ft | 227 kts | 320° |
| 2026-05-06 13:09 | 38.07782 | 24.19755 | 3131 ft | 227 kts | 319° |
| 2026-05-06 13:09 | 38.08937 | 24.18383 | 2987 ft | 229 kts | 307° |
| 2026-05-06 13:10 | 38.09697 | 24.16703 | 2985 ft | 209 kts | 289° |
| 2026-05-06 13:10 | 38.10012 | 24.14924 | 2999 ft | 213 kts | 275° |
| 2026-05-06 13:10 | 38.10152 | 24.13018 | 2993 ft | 219 kts | 275° |
| 2026-05-06 13:10 | 38.10272 | 24.11087 | 2992 ft | 219 kts | 267° |
| 2026-05-06 13:11 | 38.09891 | 24.09233 | 2995 ft | 220 kts | 240° |
| 2026-05-06 13:11 | 38.08863 | 24.07813 | 2996 ft | 220 kts | 218° |
| 2026-05-06 13:11 | 38.07652 | 24.06651 | 2986 ft | 211 kts | 216° |
| 2026-05-06 13:11 | 38.06523 | 24.05587 | 2985 ft | 196 kts | 216° |
| 2026-05-06 13:12 | 38.05469 | 24.04584 | 2871 ft | 183 kts | 216° |
| 2026-05-06 13:12 | 38.04473 | 24.03634 | 2654 ft | 178 kts | 215° |
| 2026-05-06 13:12 | 38.03467 | 24.02674 | 2432 ft | 183 kts | 215° |
| 2026-05-06 13:12 | 38.02479 | 24.01729 | 2192 ft | 171 kts | 213° |
| 2026-05-06 13:13 | 38.01575 | 24.00866 | 1975 ft | 157 kts | 215° |
| 2026-05-06 13:13 | 38.00757 | 24.00085 | 1774 ft | 143 kts | 215° |
| 2026-05-06 13:13 | 37.99969 | 23.99333 | 1600 ft | 137 kts | 211° |
| 2026-05-06 13:13 | 37.99221 | 23.98621 | 1414 ft | 134 kts | 213° |
| 2026-05-06 13:14 | 37.98491 | 23.97925 | 1238 ft | 134 kts | 211° |
| 2026-05-06 13:14 | 37.97732 | 23.97204 | 1076 ft | 137 kts | 214° |
| 2026-05-06 13:14 | 37.96969 | 23.96476 | 880 ft | 138 kts | 212° |
| 2026-05-06 13:14 | 37.96210 | 23.95753 | 724 ft | 132 kts | 213° |
| 2026-05-06 13:15 | 37.95490 | 23.95060 | 518 ft | 126 kts | 216° |
| 2026-05-06 13:15 | 37.94773 | 23.94383 | 354 ft | 129 kts | 217° |
| 2026-05-06 13:15 | 37.94098 | 23.93743 | 301 ft | 105 kts | 217° |
| 2026-05-06 13:15 | 37.93680 | 23.93347 | 295 ft | 58 kts | 217° |
| 2026-05-06 13:16 | 37.93418 | 23.93157 | 290 ft | 30 kts | 190° |
| 2026-05-06 13:16 | 37.93292 | 23.93134 | 299 ft | 10 kts | 175° |
| 2026-05-06 13:16 | 37.93256 | 23.93168 | 298 ft | 6 kts | 109° |
| 2026-05-06 13:16 | 37.93299 | 23.93263 | 301 ft | 18 kts | 37° |
| 2026-05-06 13:17 | 37.93409 | 23.93366 | 299 ft | 21 kts | 36° |
| 2026-05-06 13:17 | 37.93535 | 23.93486 | 300 ft | 24 kts | 36° |
| 2026-05-06 13:17 | 37.93678 | 23.93621 | 299 ft | 27 kts | 36° |
| 2026-05-06 13:17 | 37.93840 | 23.93772 | 300 ft | 30 kts | 38° |
| 2026-05-06 13:18 | 37.94015 | 23.93942 | 302 ft | 33 kts | 37° |
| 2026-05-06 13:18 | 37.94206 | 23.94123 | 303 ft | 36 kts | 37° |
| 2026-05-06 13:18 | 37.94411 | 23.94317 | 303 ft | 38 kts | 37° |
| 2026-05-06 13:18 | 37.94624 | 23.94519 | 304 ft | 30 kts | 37° |
| 2026-05-06 13:19 | 37.94684 | 23.94627 | 302 ft | 13 kts | 106° |
| 2026-05-06 13:19 | 37.94622 | 23.94730 | 304 ft | 17 kts | 128° |
| 2026-05-06 13:19 | 37.94545 | 23.94859 | 301 ft | 20 kts | 127° |
| 2026-05-06 13:19 | 37.94453 | 23.95011 | 302 ft | 24 kts | 128° |
| 2026-05-06 13:20 | 37.94350 | 23.95188 | 302 ft | 24 kts | 126° |
| 2026-05-06 13:20 | 37.94272 | 23.95320 | 301 ft | 19 kts | 126° |
| 2026-05-06 13:20 | 37.94238 | 23.95371 | 301 ft | 0 kts | 151° |
| 2026-05-06 13:20 | 37.94233 | 23.95366 | 301 ft | 2 kts | 207° |
| 2026-05-06 13:21 | 37.94205 | 23.95339 | 301 ft | 7 kts | 217° |
| 2026-05-06 13:21 | 37.94176 | 23.95311 | 302 ft | 0 kts | 217° |
| 2026-05-06 13:21 | 37.94171 | 23.95306 | 302 ft | 3 kts | 216° |
| 2026-05-06 13:21 | 37.94159 | 23.95296 | 302 ft | 0 kts | 217° |